Aeroporto :
LOGIN :

Iscrizione | Disclaimer

   EN    FR    IT 

 










Sommario :    VFR   VFR Marginale   IFR   IFR Intensivo   IFR Molto Intensivo
Visibilità : 
Base nubi : 
>= 8 km
>= 3000ft
5 / 8 km
1000 / 3000 ft
1500m / 5 km
500 / 1000 ft
800 / 1500m
200 / 500 ft
< 800m
< 200 ft
Simboli :   Temporali  Nebbia  Neve Forte  Precipitazioni Forti  Vento > 20 kt
SIGMETs :   Varie  Temporali  Ghiacco  Turbolenza  Onda orograficha  Ceneri Vulcaniche







- Altitudine del aeroporto : 56 ft
- Codice IATA : ILY
- Carte del aeroporto


EGPI - Islay

ULTIMO METAR :
  • 251020Z 15010KT 100V180 CAVOK 21/14 Q1017

METARs OBSOLETI :
  • 250950Z AUTO 14010KT 090V170 9999 NCD 21/15 Q1017
  • 250920Z AUTO 13012KT 090V150 9999 NCD 21/14 Q1016
  • 250850Z AUTO 14013KT 090V160 9999 NCD 21/14 Q1016
  • 250820Z AUTO 12009KT 070V150 9999 NCD 21/14 Q1016
  • 250750Z AUTO 10010KT 050V120 9999 NCD 20/14 Q1016

TAF TAF EGPI
Valido dal 25 a 09 ore il 25 a 18 ore UTC


250757Z 2509/2518 10006KT CAVOK
BECMG 2509/2512 17010KT
BECMG 2515/2518 29012KT BKN008
Nessun NOTAM noto per questo aeroporto.



MetMap, La meteo Aeronautica in un colpo d'occhio ! - Copyright ORBIFLY Dicembre 2007 - Disclaimer

ORBIFLY MET'MAP TEAM :

Programmazione e sviluppo : Alexandra Zaïnal
Concezione e sviluppo : Baudouin d'Aumeries
Co-Programmazione e sviluppo : Marc-Olivier Méhu
Supporto tecnico e logistico : Manuel Goepfert
Aiuto per la traduzione : Arnaldo La Scala

Contatto : metmap@orbifly.com




FONTI E CREDITI :

   NOAA